Floweree, Montana
Current Conditions -  °F | °C
As of 6:56 AM on Sunday 25 Jan 2015 (Local Time) from KGFA Reporting Station
Broken Clouds Broken Clouds  
Wind Chill: 43°   Ceiling: 14000
Heat Index: 50°   Visibility: 10mi
Dew Point: 37°   Wind: 24mph
Humidity: 62%   Direction: 230°SW
Pressure: 29.96"   Gusts: 32mph
Location:  47.73°N, 111.03°W
Report Text: KGFA 251356Z AUTO 23021G28KT 10SM FEW120 BKN140 10/03 A2996 RMK AO2 PK WND 23029/31 SLP163 T00990030
Loading
Personal Weather Stations






























Interactive Weather Map New forecast layout! Learn more

10-Day Weather Forecast

Advertisements
Track Severe Weather on mobile